sensor_id;sensor_type;location;lat;lon;timestamp;P1;durP1;ratioP1;P2;durP2;ratioP2
22160;SDS011;49035;48.812;11.762;2022-07-17T00:02:12;9.60;;;5.37;;
22160;SDS011;49035;48.812;11.762;2022-07-17T00:04:38;6.63;;;5.90;;
22160;SDS011;49035;48.812;11.762;2022-07-17T00:07:03;6.57;;;5.43;;
22160;SDS011;49035;48.812;11.762;2022-07-17T00:09:29;7.27;;;6.17;;
22160;SDS011;49035;48.812;11.762;2022-07-17T00:11:55;12.27;;;6.40;;
22160;SDS011;49035;48.812;11.762;2022-07-17T00:14:20;7.07;;;6.10;;
22160;SDS011;49035;48.812;11.762;2022-07-17T00:16:46;7.10;;;5.93;;
22160;SDS011;49035;48.812;11.762;2022-07-17T00:19:12;8.77;;;6.07;;
22160;SDS011;49035;48.812;11.762;2022-07-17T00:21:37;8.17;;;5.90;;
22160;SDS011;49035;48.812;11.762;2022-07-17T00:24:03;8.37;;;5.97;;
22160;SDS011;49035;48.812;11.762;2022-07-17T00:26:31;9.83;;;6.67;;
22160;SDS011;49035;48.812;11.762;2022-07-17T00:28:57;9.83;;;6.13;;
22160;SDS011;49035;48.812;11.762;2022-07-17T00:31:23;7.47;;;5.87;;
22160;SDS011;49035;48.812;11.762;2022-07-17T00:33:48;14.37;;;6.70;;
22160;SDS011;49035;48.812;11.762;2022-07-17T00:36:14;9.33;;;6.97;;
22160;SDS011;49035;48.812;11.762;2022-07-17T00:38:39;10.83;;;6.17;;
22160;SDS011;49035;48.812;11.762;2022-07-17T00:41:05;9.47;;;6.30;;
22160;SDS011;49035;48.812;11.762;2022-07-17T00:43:31;9.40;;;6.33;;
22160;SDS011;49035;48.812;11.762;2022-07-17T00:46:00;9.43;;;6.53;;
22160;SDS011;49035;48.812;11.762;2022-07-17T00:48:28;10.27;;;6.57;;
22160;SDS011;49035;48.812;11.762;2022-07-17T00:50:54;11.43;;;6.60;;
22160;SDS011;49035;48.812;11.762;2022-07-17T00:53:20;8.23;;;6.87;;
22160;SDS011;49035;48.812;11.762;2022-07-17T00:55:47;11.83;;;6.57;;
22160;SDS011;49035;48.812;11.762;2022-07-17T00:58:19;9.07;;;6.73;;
22160;SDS011;49035;48.812;11.762;2022-07-17T01:00:47;6.80;;;5.73;;
22160;SDS011;49035;48.812;11.762;2022-07-17T01:03:17;8.03;;;6.13;;
22160;SDS011;49035;48.812;11.762;2022-07-17T01:05:45;8.73;;;6.63;;
22160;SDS011;49035;48.812;11.762;2022-07-17T01:08:10;8.80;;;6.07;;
22160;SDS011;49035;48.812;11.762;2022-07-17T01:10:36;9.83;;;7.03;;
22160;SDS011;49035;48.812;11.762;2022-07-17T01:13:03;11.00;;;6.73;;
22160;SDS011;49035;48.812;11.762;2022-07-17T01:15:29;9.00;;;6.87;;
22160;SDS011;49035;48.812;11.762;2022-07-17T01:18:04;7.23;;;6.50;;
22160;SDS011;49035;48.812;11.762;2022-07-17T01:20:34;9.83;;;7.63;;
22160;SDS011;49035;48.812;11.762;2022-07-17T01:23:01;9.47;;;7.17;;
22160;SDS011;49035;48.812;11.762;2022-07-17T01:25:27;11.10;;;7.37;;
22160;SDS011;49035;48.812;11.762;2022-07-17T01:27:53;8.03;;;7.20;;
22160;SDS011;49035;48.812;11.762;2022-07-17T01:30:19;9.00;;;6.73;;
22160;SDS011;49035;48.812;11.762;2022-07-17T01:32:45;8.87;;;7.37;;
22160;SDS011;49035;48.812;11.762;2022-07-17T01:35:11;11.93;;;6.97;;
22160;SDS011;49035;48.812;11.762;2022-07-17T01:37:38;8.33;;;6.40;;
22160;SDS011;49035;48.812;11.762;2022-07-17T01:40:05;8.73;;;6.70;;
22160;SDS011;49035;48.812;11.762;2022-07-17T01:42:32;8.77;;;7.10;;
22160;SDS011;49035;48.812;11.762;2022-07-17T01:44:57;10.43;;;6.50;;
22160;SDS011;49035;48.812;11.762;2022-07-17T01:47:24;9.37;;;7.17;;
22160;SDS011;49035;48.812;11.762;2022-07-17T01:49:50;10.10;;;6.93;;
22160;SDS011;49035;48.812;11.762;2022-07-17T01:52:21;8.40;;;6.77;;
22160;SDS011;49035;48.812;11.762;2022-07-17T01:54:47;10.53;;;7.17;;
22160;SDS011;49035;48.812;11.762;2022-07-17T01:57:13;9.07;;;6.73;;
22160;SDS011;49035;48.812;11.762;2022-07-17T01:59:39;9.63;;;7.13;;
22160;SDS011;49035;48.812;11.762;2022-07-17T02:02:06;12.23;;;7.30;;
22160;SDS011;49035;48.812;11.762;2022-07-17T02:04:33;9.77;;;7.60;;
22160;SDS011;49035;48.812;11.762;2022-07-17T02:07:00;8.80;;;7.03;;
22160;SDS011;49035;48.812;11.762;2022-07-17T02:09:26;12.97;;;8.17;;
22160;SDS011;49035;48.812;11.762;2022-07-17T02:11:52;10.37;;;7.60;;
22160;SDS011;49035;48.812;11.762;2022-07-17T02:14:17;11.90;;;7.10;;
22160;SDS011;49035;48.812;11.762;2022-07-17T02:16:43;8.37;;;7.00;;
22160;SDS011;49035;48.812;11.762;2022-07-17T02:19:09;9.93;;;6.87;;
22160;SDS011;49035;48.812;11.762;2022-07-17T02:21:36;9.23;;;7.10;;
22160;SDS011;49035;48.812;11.762;2022-07-17T02:24:01;8.30;;;6.57;;
22160;SDS011;49035;48.812;11.762;2022-07-17T02:26:27;8.53;;;7.40;;
22160;SDS011;49035;48.812;11.762;2022-07-17T02:28:52;10.53;;;7.83;;
22160;SDS011;49035;48.812;11.762;2022-07-17T02:31:19;9.40;;;7.10;;
22160;SDS011;49035;48.812;11.762;2022-07-17T02:33:45;10.83;;;8.60;;
22160;SDS011;49035;48.812;11.762;2022-07-17T02:36:10;10.77;;;7.80;;
22160;SDS011;49035;48.812;11.762;2022-07-17T02:38:36;11.80;;;8.40;;
22160;SDS011;49035;48.812;11.762;2022-07-17T02:41:01;10.27;;;7.90;;
22160;SDS011;49035;48.812;11.762;2022-07-17T02:43:27;12.80;;;7.80;;
22160;SDS011;49035;48.812;11.762;2022-07-17T02:45:52;9.33;;;7.83;;
22160;SDS011;49035;48.812;11.762;2022-07-17T02:48:18;8.47;;;7.10;;
22160;SDS011;49035;48.812;11.762;2022-07-17T02:50:47;9.57;;;7.47;;
22160;SDS011;49035;48.812;11.762;2022-07-17T02:53:12;11.57;;;7.93;;
22160;SDS011;49035;48.812;11.762;2022-07-17T02:55:38;9.83;;;7.47;;
22160;SDS011;49035;48.812;11.762;2022-07-17T02:58:03;9.17;;;7.23;;
22160;SDS011;49035;48.812;11.762;2022-07-17T03:00:29;11.27;;;8.07;;
22160;SDS011;49035;48.812;11.762;2022-07-17T03:02:55;12.27;;;7.90;;
22160;SDS011;49035;48.812;11.762;2022-07-17T03:05:21;10.17;;;7.73;;
22160;SDS011;49035;48.812;11.762;2022-07-17T03:07:47;9.30;;;7.80;;
22160;SDS011;49035;48.812;11.762;2022-07-17T03:10:13;12.10;;;8.00;;
22160;SDS011;49035;48.812;11.762;2022-07-17T03:12:39;12.27;;;8.53;;
22160;SDS011;49035;48.812;11.762;2022-07-17T03:15:05;13.17;;;8.03;;
22160;SDS011;49035;48.812;11.762;2022-07-17T03:17:31;9.43;;;7.67;;
22160;SDS011;49035;48.812;11.762;2022-07-17T03:19:57;11.93;;;8.40;;
22160;SDS011;49035;48.812;11.762;2022-07-17T03:22:23;11.93;;;8.57;;
22160;SDS011;49035;48.812;11.762;2022-07-17T03:24:48;12.33;;;8.40;;
22160;SDS011;49035;48.812;11.762;2022-07-17T03:27:14;12.47;;;8.33;;
22160;SDS011;49035;48.812;11.762;2022-07-17T03:29:40;11.37;;;8.40;;
22160;SDS011;49035;48.812;11.762;2022-07-17T03:32:06;12.70;;;8.97;;
22160;SDS011;49035;48.812;11.762;2022-07-17T03:34:31;11.33;;;8.57;;
22160;SDS011;49035;48.812;11.762;2022-07-17T03:36:57;11.97;;;8.13;;
22160;SDS011;49035;48.812;11.762;2022-07-17T03:39:23;13.33;;;8.93;;
22160;SDS011;49035;48.812;11.762;2022-07-17T03:41:48;10.67;;;8.00;;
22160;SDS011;49035;48.812;11.762;2022-07-17T03:44:14;11.30;;;8.80;;
22160;SDS011;49035;48.812;11.762;2022-07-17T03:46:39;12.80;;;9.50;;
22160;SDS011;49035;48.812;11.762;2022-07-17T03:49:05;11.60;;;9.20;;
22160;SDS011;49035;48.812;11.762;2022-07-17T03:51:32;10.63;;;8.40;;
22160;SDS011;49035;48.812;11.762;2022-07-17T03:53:57;13.50;;;9.33;;
22160;SDS011;49035;48.812;11.762;2022-07-17T03:56:23;11.90;;;9.53;;
22160;SDS011;49035;48.812;11.762;2022-07-17T03:58:48;15.20;;;10.10;;
22160;SDS011;49035;48.812;11.762;2022-07-17T04:01:14;14.47;;;10.30;;
22160;SDS011;49035;48.812;11.762;2022-07-17T04:03:40;14.17;;;9.93;;
22160;SDS011;49035;48.812;11.762;2022-07-17T04:06:06;17.20;;;10.37;;
22160;SDS011;49035;48.812;11.762;2022-07-17T04:08:31;14.07;;;10.07;;
22160;SDS011;49035;48.812;11.762;2022-07-17T04:10:57;14.57;;;9.80;;
22160;SDS011;49035;48.812;11.762;2022-07-17T04:13:23;14.80;;;10.70;;
22160;SDS011;49035;48.812;11.762;2022-07-17T04:15:48;16.60;;;12.13;;
22160;SDS011;49035;48.812;11.762;2022-07-17T04:18:15;15.43;;;11.77;;
22160;SDS011;49035;48.812;11.762;2022-07-17T04:20:41;18.17;;;12.73;;
22160;SDS011;49035;48.812;11.762;2022-07-17T04:23:07;18.47;;;13.80;;
22160;SDS011;49035;48.812;11.762;2022-07-17T04:25:33;18.13;;;14.67;;
22160;SDS011;49035;48.812;11.762;2022-07-17T04:27:59;16.17;;;13.87;;
22160;SDS011;49035;48.812;11.762;2022-07-17T04:30:25;16.80;;;14.07;;
22160;SDS011;49035;48.812;11.762;2022-07-17T04:32:51;19.67;;;15.10;;
22160;SDS011;49035;48.812;11.762;2022-07-17T04:35:16;12.80;;;11.13;;
22160;SDS011;49035;48.812;11.762;2022-07-17T04:37:42;9.93;;;8.37;;
22160;SDS011;49035;48.812;11.762;2022-07-17T04:40:08;9.07;;;5.77;;
22160;SDS011;49035;48.812;11.762;2022-07-17T04:42:34;6.30;;;4.57;;
22160;SDS011;49035;48.812;11.762;2022-07-17T04:45:00;7.07;;;4.90;;
22160;SDS011;49035;48.812;11.762;2022-07-17T04:47:25;4.70;;;4.25;;
22160;SDS011;49035;48.812;11.762;2022-07-17T04:49:51;6.15;;;4.30;;
22160;SDS011;49035;48.812;11.762;2022-07-17T04:52:16;5.05;;;3.90;;
22160;SDS011;49035;48.812;11.762;2022-07-17T04:54:42;4.15;;;3.72;;
22160;SDS011;49035;48.812;11.762;2022-07-17T04:57:07;5.32;;;3.55;;
22160;SDS011;49035;48.812;11.762;2022-07-17T04:59:33;3.30;;;3.00;;
22160;SDS011;49035;48.812;11.762;2022-07-17T05:02:02;3.53;;;2.88;;
22160;SDS011;49035;48.812;11.762;2022-07-17T05:04:28;6.72;;;3.30;;
22160;SDS011;49035;48.812;11.762;2022-07-17T05:06:54;3.35;;;2.97;;
22160;SDS011;49035;48.812;11.762;2022-07-17T05:09:20;7.25;;;3.40;;
22160;SDS011;49035;48.812;11.762;2022-07-17T05:11:46;5.90;;;3.35;;
22160;SDS011;49035;48.812;11.762;2022-07-17T05:14:11;4.97;;;3.40;;
22160;SDS011;49035;48.812;11.762;2022-07-17T05:16:37;6.20;;;2.90;;
22160;SDS011;49035;48.812;11.762;2022-07-17T05:19:02;6.18;;;3.42;;
22160;SDS011;49035;48.812;11.762;2022-07-17T05:21:28;4.68;;;3.80;;
22160;SDS011;49035;48.812;11.762;2022-07-17T05:23:53;4.65;;;3.42;;
22160;SDS011;49035;48.812;11.762;2022-07-17T05:26:19;5.72;;;3.25;;
22160;SDS011;49035;48.812;11.762;2022-07-17T05:28:45;9.35;;;3.20;;
22160;SDS011;49035;48.812;11.762;2022-07-17T05:31:10;3.15;;;2.70;;
22160;SDS011;49035;48.812;11.762;2022-07-17T05:33:36;4.60;;;2.88;;
22160;SDS011;49035;48.812;11.762;2022-07-17T05:36:02;2.95;;;2.45;;
22160;SDS011;49035;48.812;11.762;2022-07-17T05:38:27;5.78;;;2.53;;
22160;SDS011;49035;48.812;11.762;2022-07-17T05:40:53;3.65;;;2.40;;
22160;SDS011;49035;48.812;11.762;2022-07-17T05:43:19;6.03;;;2.78;;
22160;SDS011;49035;48.812;11.762;2022-07-17T05:45:44;4.38;;;2.67;;
22160;SDS011;49035;48.812;11.762;2022-07-17T05:48:10;3.75;;;2.50;;
22160;SDS011;49035;48.812;11.762;2022-07-17T05:50:36;5.07;;;2.17;;
22160;SDS011;49035;48.812;11.762;2022-07-17T05:53:01;4.25;;;2.30;;
22160;SDS011;49035;48.812;11.762;2022-07-17T05:55:27;3.92;;;2.05;;
22160;SDS011;49035;48.812;11.762;2022-07-17T05:57:53;3.97;;;2.45;;
22160;SDS011;49035;48.812;11.762;2022-07-17T06:00:19;2.78;;;1.92;;
22160;SDS011;49035;48.812;11.762;2022-07-17T06:02:45;3.38;;;2.40;;
22160;SDS011;49035;48.812;11.762;2022-07-17T06:05:11;2.50;;;2.10;;
22160;SDS011;49035;48.812;11.762;2022-07-17T06:07:37;4.13;;;2.15;;
22160;SDS011;49035;48.812;11.762;2022-07-17T06:10:03;4.35;;;2.13;;
22160;SDS011;49035;48.812;11.762;2022-07-17T06:12:30;4.20;;;2.22;;
22160;SDS011;49035;48.812;11.762;2022-07-17T06:14:55;3.22;;;2.13;;
22160;SDS011;49035;48.812;11.762;2022-07-17T06:17:21;2.45;;;1.90;;
22160;SDS011;49035;48.812;11.762;2022-07-17T06:19:47;3.28;;;2.20;;
22160;SDS011;49035;48.812;11.762;2022-07-17T06:22:17;3.83;;;2.20;;
22160;SDS011;49035;48.812;11.762;2022-07-17T06:24:45;3.53;;;2.03;;
22160;SDS011;49035;48.812;11.762;2022-07-17T06:27:12;6.63;;;1.88;;
22160;SDS011;49035;48.812;11.762;2022-07-17T06:29:38;4.20;;;2.08;;
22160;SDS011;49035;48.812;11.762;2022-07-17T06:32:03;3.40;;;1.70;;
22160;SDS011;49035;48.812;11.762;2022-07-17T06:34:29;2.28;;;1.55;;
22160;SDS011;49035;48.812;11.762;2022-07-17T06:36:55;2.88;;;1.70;;
22160;SDS011;49035;48.812;11.762;2022-07-17T06:39:20;5.45;;;2.20;;
22160;SDS011;49035;48.812;11.762;2022-07-17T06:41:46;6.03;;;1.83;;
22160;SDS011;49035;48.812;11.762;2022-07-17T06:44:12;3.17;;;1.35;;
22160;SDS011;49035;48.812;11.762;2022-07-17T06:46:37;5.38;;;1.50;;
22160;SDS011;49035;48.812;11.762;2022-07-17T06:49:03;2.47;;;1.30;;
22160;SDS011;49035;48.812;11.762;2022-07-17T06:51:29;2.33;;;1.02;;
22160;SDS011;49035;48.812;11.762;2022-07-17T06:53:55;2.47;;;1.20;;
22160;SDS011;49035;48.812;11.762;2022-07-17T06:56:20;1.70;;;1.50;;
22160;SDS011;49035;48.812;11.762;2022-07-17T06:58:46;2.60;;;1.40;;
22160;SDS011;49035;48.812;11.762;2022-07-17T07:01:12;5.43;;;1.50;;
22160;SDS011;49035;48.812;11.762;2022-07-17T07:03:38;3.17;;;1.58;;
22160;SDS011;49035;48.812;11.762;2022-07-17T07:06:03;1.70;;;1.38;;
22160;SDS011;49035;48.812;11.762;2022-07-17T07:08:29;3.35;;;1.50;;
22160;SDS011;49035;48.812;11.762;2022-07-17T07:10:55;2.58;;;1.50;;
22160;SDS011;49035;48.812;11.762;2022-07-17T07:13:20;2.30;;;1.60;;
22160;SDS011;49035;48.812;11.762;2022-07-17T07:15:46;4.15;;;1.90;;
22160;SDS011;49035;48.812;11.762;2022-07-17T07:18:12;7.05;;;1.70;;
22160;SDS011;49035;48.812;11.762;2022-07-17T07:20:38;4.75;;;1.75;;
22160;SDS011;49035;48.812;11.762;2022-07-17T07:23:03;2.92;;;1.60;;
22160;SDS011;49035;48.812;11.762;2022-07-17T07:25:30;2.20;;;1.42;;
22160;SDS011;49035;48.812;11.762;2022-07-17T07:27:55;1.90;;;1.80;;
22160;SDS011;49035;48.812;11.762;2022-07-17T07:30:21;4.60;;;1.60;;
22160;SDS011;49035;48.812;11.762;2022-07-17T07:32:47;2.95;;;1.63;;
22160;SDS011;49035;48.812;11.762;2022-07-17T07:35:12;1.98;;;1.50;;
22160;SDS011;49035;48.812;11.762;2022-07-17T07:37:38;2.33;;;1.42;;
22160;SDS011;49035;48.812;11.762;2022-07-17T07:40:04;1.85;;;1.30;;
22160;SDS011;49035;48.812;11.762;2022-07-17T07:42:32;2.30;;;1.60;;
22160;SDS011;49035;48.812;11.762;2022-07-17T07:44:57;2.75;;;1.50;;
22160;SDS011;49035;48.812;11.762;2022-07-17T07:47:23;2.72;;;1.55;;
22160;SDS011;49035;48.812;11.762;2022-07-17T07:49:49;3.15;;;1.58;;
22160;SDS011;49035;48.812;11.762;2022-07-17T07:52:15;2.90;;;1.83;;
22160;SDS011;49035;48.812;11.762;2022-07-17T07:54:41;3.08;;;1.30;;
22160;SDS011;49035;48.812;11.762;2022-07-17T07:57:06;4.03;;;1.92;;
22160;SDS011;49035;48.812;11.762;2022-07-17T07:59:32;3.45;;;1.70;;
22160;SDS011;49035;48.812;11.762;2022-07-17T08:01:58;2.55;;;1.40;;
22160;SDS011;49035;48.812;11.762;2022-07-17T08:04:24;3.78;;;1.40;;
22160;SDS011;49035;48.812;11.762;2022-07-17T08:06:51;1.85;;;1.27;;
22160;SDS011;49035;48.812;11.762;2022-07-17T08:09:17;2.58;;;1.63;;
22160;SDS011;49035;48.812;11.762;2022-07-17T08:11:43;1.58;;;1.42;;
22160;SDS011;49035;48.812;11.762;2022-07-17T08:14:08;3.60;;;1.70;;
22160;SDS011;49035;48.812;11.762;2022-07-17T08:16:34;2.22;;;1.70;;
22160;SDS011;49035;48.812;11.762;2022-07-17T08:19:00;3.00;;;1.77;;
22160;SDS011;49035;48.812;11.762;2022-07-17T08:21:26;2.53;;;1.80;;
22160;SDS011;49035;48.812;11.762;2022-07-17T08:23:51;2.47;;;1.50;;
22160;SDS011;49035;48.812;11.762;2022-07-17T08:26:17;4.50;;;1.60;;
22160;SDS011;49035;48.812;11.762;2022-07-17T08:28:43;1.83;;;1.48;;
22160;SDS011;49035;48.812;11.762;2022-07-17T08:31:09;3.15;;;1.55;;
22160;SDS011;49035;48.812;11.762;2022-07-17T08:33:35;2.28;;;1.55;;
22160;SDS011;49035;48.812;11.762;2022-07-17T08:36:01;3.10;;;1.23;;
22160;SDS011;49035;48.812;11.762;2022-07-17T08:38:27;2.25;;;1.30;;
22160;SDS011;49035;48.812;11.762;2022-07-17T08:40:53;3.33;;;1.80;;
22160;SDS011;49035;48.812;11.762;2022-07-17T08:43:20;4.35;;;1.67;;
22160;SDS011;49035;48.812;11.762;2022-07-17T08:45:46;2.05;;;1.33;;
22160;SDS011;49035;48.812;11.762;2022-07-17T08:48:14;1.48;;;1.20;;
22160;SDS011;49035;48.812;11.762;2022-07-17T08:50:42;2.10;;;1.48;;
22160;SDS011;49035;48.812;11.762;2022-07-17T08:53:08;3.90;;;1.38;;
22160;SDS011;49035;48.812;11.762;2022-07-17T08:55:34;1.67;;;1.40;;
22160;SDS011;49035;48.812;11.762;2022-07-17T08:57:59;2.35;;;1.40;;
22160;SDS011;49035;48.812;11.762;2022-07-17T09:00:26;3.13;;;1.77;;
22160;SDS011;49035;48.812;11.762;2022-07-17T09:05:32;1.20;;;1.10;;
22160;SDS011;49035;48.812;11.762;2022-07-17T09:07:59;1.60;;;1.50;;
22160;SDS011;49035;48.812;11.762;2022-07-17T09:13:14;2.10;;;1.35;;
22160;SDS011;49035;48.812;11.762;2022-07-17T09:15:45;1.90;;;1.20;;
22160;SDS011;49035;48.812;11.762;2022-07-17T09:18:12;1.67;;;1.33;;
22160;SDS011;49035;48.812;11.762;2022-07-17T09:20:43;2.03;;;1.58;;
22160;SDS011;49035;48.812;11.762;2022-07-17T09:23:13;1.25;;;1.15;;
22160;SDS011;49035;48.812;11.762;2022-07-17T09:25:40;3.95;;;1.40;;
22160;SDS011;49035;48.812;11.762;2022-07-17T09:28:08;2.08;;;1.40;;
22160;SDS011;49035;48.812;11.762;2022-07-17T09:30:43;1.95;;;1.42;;
22160;SDS011;49035;48.812;11.762;2022-07-17T09:33:16;2.88;;;1.50;;
22160;SDS011;49035;48.812;11.762;2022-07-17T09:38:32;1.20;;;1.05;;
22160;SDS011;49035;48.812;11.762;2022-07-17T09:41:01;1.98;;;1.33;;
22160;SDS011;49035;48.812;11.762;2022-07-17T09:43:50;3.55;;;1.30;;
22160;SDS011;49035;48.812;11.762;2022-07-17T09:46:21;1.40;;;1.30;;
22160;SDS011;49035;48.812;11.762;2022-07-17T09:48:52;3.28;;;1.38;;
22160;SDS011;49035;48.812;11.762;2022-07-17T09:53:47;2.55;;;1.60;;
22160;SDS011;49035;48.812;11.762;2022-07-17T09:56:15;1.30;;;1.17;;
22160;SDS011;49035;48.812;11.762;2022-07-17T09:58:43;3.28;;;1.35;;
22160;SDS011;49035;48.812;11.762;2022-07-17T10:01:13;1.83;;;1.13;;
22160;SDS011;49035;48.812;11.762;2022-07-17T10:03:40;2.58;;;1.02;;
22160;SDS011;49035;48.812;11.762;2022-07-17T10:06:08;1.50;;;1.20;;
22160;SDS011;49035;48.812;11.762;2022-07-17T10:08:35;1.80;;;1.27;;
22160;SDS011;49035;48.812;11.762;2022-07-17T10:11:02;0.93;;;0.90;;
22160;SDS011;49035;48.812;11.762;2022-07-17T10:13:30;3.10;;;1.40;;
22160;SDS011;49035;48.812;11.762;2022-07-17T10:15:56;2.25;;;1.17;;
22160;SDS011;49035;48.812;11.762;2022-07-17T10:18:33;2.17;;;1.20;;
22160;SDS011;49035;48.812;11.762;2022-07-17T10:21:18;3.40;;;1.23;;
22160;SDS011;49035;48.812;11.762;2022-07-17T10:23:48;2.33;;;1.15;;
22160;SDS011;49035;48.812;11.762;2022-07-17T10:26:32;2.20;;;1.25;;
22160;SDS011;49035;48.812;11.762;2022-07-17T10:29:01;2.13;;;1.20;;
22160;SDS011;49035;48.812;11.762;2022-07-17T10:31:31;1.42;;;1.20;;
22160;SDS011;49035;48.812;11.762;2022-07-17T10:34:00;3.10;;;1.45;;
22160;SDS011;49035;48.812;11.762;2022-07-17T10:36:39;1.88;;;1.23;;
22160;SDS011;49035;48.812;11.762;2022-07-17T10:39:24;1.60;;;0.98;;
22160;SDS011;49035;48.812;11.762;2022-07-17T10:41:58;1.75;;;1.20;;
22160;SDS011;49035;48.812;11.762;2022-07-17T10:44:28;3.08;;;1.58;;
22160;SDS011;49035;48.812;11.762;2022-07-17T10:46:55;1.35;;;1.23;;
22160;SDS011;49035;48.812;11.762;2022-07-17T10:49:22;2.40;;;1.10;;
22160;SDS011;49035;48.812;11.762;2022-07-17T10:51:48;1.10;;;1.00;;
22160;SDS011;49035;48.812;11.762;2022-07-17T10:54:16;1.05;;;0.98;;
22160;SDS011;49035;48.812;11.762;2022-07-17T10:56:44;2.88;;;1.40;;
22160;SDS011;49035;48.812;11.762;2022-07-17T10:59:11;3.47;;;1.10;;
22160;SDS011;49035;48.812;11.762;2022-07-17T11:01:37;2.35;;;1.25;;
22160;SDS011;49035;48.812;11.762;2022-07-17T11:04:03;2.50;;;1.30;;
22160;SDS011;49035;48.812;11.762;2022-07-17T11:06:35;2.03;;;1.35;;
22160;SDS011;49035;48.812;11.762;2022-07-17T11:09:05;3.63;;;1.63;;
22160;SDS011;49035;48.812;11.762;2022-07-17T11:11:50;5.18;;;1.20;;
22160;SDS011;49035;48.812;11.762;2022-07-17T11:14:21;1.60;;;1.20;;
22160;SDS011;49035;48.812;11.762;2022-07-17T11:19:26;3.20;;;1.10;;
22160;SDS011;49035;48.812;11.762;2022-07-17T11:21:57;2.78;;;1.15;;
22160;SDS011;49035;48.812;11.762;2022-07-17T11:24:23;1.52;;;1.17;;
22160;SDS011;49035;48.812;11.762;2022-07-17T11:26:51;1.27;;;1.15;;
22160;SDS011;49035;48.812;11.762;2022-07-17T11:29:17;1.08;;;0.98;;
22160;SDS011;49035;48.812;11.762;2022-07-17T11:31:43;1.08;;;0.98;;
22160;SDS011;49035;48.812;11.762;2022-07-17T11:34:09;1.15;;;1.05;;
22160;SDS011;49035;48.812;11.762;2022-07-17T11:36:43;1.55;;;1.00;;
22160;SDS011;49035;48.812;11.762;2022-07-17T11:39:13;2.05;;;1.00;;
22160;SDS011;49035;48.812;11.762;2022-07-17T11:44:16;2.80;;;1.35;;
22160;SDS011;49035;48.812;11.762;2022-07-17T11:46:43;3.05;;;1.58;;
22160;SDS011;49035;48.812;11.762;2022-07-17T11:49:11;1.05;;;0.95;;
22160;SDS011;49035;48.812;11.762;2022-07-17T11:51:49;3.78;;;1.45;;
22160;SDS011;49035;48.812;11.762;2022-07-17T11:54:15;1.95;;;1.33;;
22160;SDS011;49035;48.812;11.762;2022-07-17T11:56:42;6.80;;;1.40;;
22160;SDS011;49035;48.812;11.762;2022-07-17T11:59:22;1.70;;;1.20;;
22160;SDS011;49035;48.812;11.762;2022-07-17T12:01:55;1.95;;;0.95;;
22160;SDS011;49035;48.812;11.762;2022-07-17T12:04:21;2.13;;;1.25;;
22160;SDS011;49035;48.812;11.762;2022-07-17T12:06:57;4.50;;;1.20;;
22160;SDS011;49035;48.812;11.762;2022-07-17T12:09:26;4.57;;;1.10;;
22160;SDS011;49035;48.812;11.762;2022-07-17T12:11:52;1.55;;;1.13;;
22160;SDS011;49035;48.812;11.762;2022-07-17T12:14:18;1.48;;;1.20;;
22160;SDS011;49035;48.812;11.762;2022-07-17T12:16:44;3.90;;;1.52;;
22160;SDS011;49035;48.812;11.762;2022-07-17T12:19:11;2.10;;;1.23;;
22160;SDS011;49035;48.812;11.762;2022-07-17T12:21:54;1.88;;;1.20;;
22160;SDS011;49035;48.812;11.762;2022-07-17T12:24:28;2.00;;;1.30;;
22160;SDS011;49035;48.812;11.762;2022-07-17T12:26:56;1.25;;;1.13;;
22160;SDS011;49035;48.812;11.762;2022-07-17T12:29:24;2.90;;;1.02;;
22160;SDS011;49035;48.812;11.762;2022-07-17T12:32:00;2.03;;;1.52;;
22160;SDS011;49035;48.812;11.762;2022-07-17T12:34:27;1.73;;;1.40;;
22160;SDS011;49035;48.812;11.762;2022-07-17T12:36:53;1.23;;;1.08;;
22160;SDS011;49035;48.812;11.762;2022-07-17T12:39:19;1.10;;;0.90;;
22160;SDS011;49035;48.812;11.762;2022-07-17T12:41:45;3.10;;;1.20;;
22160;SDS011;49035;48.812;11.762;2022-07-17T12:44:12;2.97;;;1.15;;
22160;SDS011;49035;48.812;11.762;2022-07-17T12:50:17;2.10;;;1.10;;
22160;SDS011;49035;48.812;11.762;2022-07-17T12:52:42;1.30;;;1.20;;
22160;SDS011;49035;48.812;11.762;2022-07-17T12:55:08;1.20;;;1.10;;
22160;SDS011;49035;48.812;11.762;2022-07-17T12:57:36;0.98;;;0.98;;
22160;SDS011;49035;48.812;11.762;2022-07-17T13:00:02;1.27;;;1.13;;
22160;SDS011;49035;48.812;11.762;2022-07-17T13:02:29;1.33;;;1.20;;
22160;SDS011;49035;48.812;11.762;2022-07-17T13:04:54;1.40;;;1.15;;
22160;SDS011;49035;48.812;11.762;2022-07-17T13:07:20;2.80;;;1.30;;
22160;SDS011;49035;48.812;11.762;2022-07-17T13:09:46;2.65;;;1.10;;
22160;SDS011;49035;48.812;11.762;2022-07-17T13:12:11;2.08;;;1.13;;
22160;SDS011;49035;48.812;11.762;2022-07-17T13:14:37;3.35;;;1.08;;
22160;SDS011;49035;48.812;11.762;2022-07-17T13:17:02;2.47;;;1.30;;
22160;SDS011;49035;48.812;11.762;2022-07-17T13:19:28;1.58;;;1.10;;
22160;SDS011;49035;48.812;11.762;2022-07-17T13:21:54;2.85;;;1.20;;
22160;SDS011;49035;48.812;11.762;2022-07-17T13:24:20;3.20;;;1.10;;
22160;SDS011;49035;48.812;11.762;2022-07-17T13:26:46;2.17;;;1.13;;
22160;SDS011;49035;48.812;11.762;2022-07-17T13:29:11;1.45;;;1.35;;
22160;SDS011;49035;48.812;11.762;2022-07-17T13:31:37;1.65;;;1.23;;
22160;SDS011;49035;48.812;11.762;2022-07-17T13:34:04;2.85;;;1.02;;
22160;SDS011;49035;48.812;11.762;2022-07-17T13:36:29;1.60;;;1.20;;
22160;SDS011;49035;48.812;11.762;2022-07-17T13:38:55;1.30;;;1.20;;
22160;SDS011;49035;48.812;11.762;2022-07-17T13:41:21;1.98;;;1.13;;
22160;SDS011;49035;48.812;11.762;2022-07-17T13:43:47;1.30;;;1.20;;
22160;SDS011;49035;48.812;11.762;2022-07-17T13:46:13;2.70;;;1.10;;
22160;SDS011;49035;48.812;11.762;2022-07-17T13:48:38;3.03;;;1.10;;
22160;SDS011;49035;48.812;11.762;2022-07-17T13:51:04;1.92;;;1.02;;
22160;SDS011;49035;48.812;11.762;2022-07-17T13:53:31;1.67;;;1.15;;
22160;SDS011;49035;48.812;11.762;2022-07-17T13:55:57;2.60;;;1.25;;
22160;SDS011;49035;48.812;11.762;2022-07-17T13:58:23;3.03;;;1.17;;
22160;SDS011;49035;48.812;11.762;2022-07-17T14:00:48;3.67;;;1.10;;
22160;SDS011;49035;48.812;11.762;2022-07-17T14:03:14;1.92;;;1.20;;
22160;SDS011;49035;48.812;11.762;2022-07-17T14:05:40;3.13;;;1.13;;
22160;SDS011;49035;48.812;11.762;2022-07-17T14:08:05;1.13;;;1.00;;
22160;SDS011;49035;48.812;11.762;2022-07-17T14:10:31;1.77;;;0.98;;
22160;SDS011;49035;48.812;11.762;2022-07-17T14:12:57;3.35;;;1.13;;
22160;SDS011;49035;48.812;11.762;2022-07-17T14:15:23;2.05;;;1.20;;
22160;SDS011;49035;48.812;11.762;2022-07-17T14:17:48;4.88;;;1.02;;
22160;SDS011;49035;48.812;11.762;2022-07-17T14:20:14;1.98;;;0.90;;
22160;SDS011;49035;48.812;11.762;2022-07-17T14:22:40;3.38;;;1.25;;
22160;SDS011;49035;48.812;11.762;2022-07-17T14:25:05;1.73;;;1.08;;
22160;SDS011;49035;48.812;11.762;2022-07-17T14:27:31;1.85;;;1.23;;
22160;SDS011;49035;48.812;11.762;2022-07-17T14:29:57;1.50;;;1.00;;
22160;SDS011;49035;48.812;11.762;2022-07-17T14:32:22;2.55;;;1.20;;
22160;SDS011;49035;48.812;11.762;2022-07-17T14:34:48;3.80;;;1.30;;
22160;SDS011;49035;48.812;11.762;2022-07-17T14:37:14;1.55;;;1.20;;
22160;SDS011;49035;48.812;11.762;2022-07-17T14:39:39;1.23;;;1.00;;
22160;SDS011;49035;48.812;11.762;2022-07-17T14:42:05;1.65;;;1.20;;
22160;SDS011;49035;48.812;11.762;2022-07-17T14:44:30;1.48;;;1.00;;
22160;SDS011;49035;48.812;11.762;2022-07-17T14:46:59;2.92;;;1.10;;
22160;SDS011;49035;48.812;11.762;2022-07-17T14:49:26;3.50;;;1.13;;